Terminal Aerodrome Forecast
Issued by NWS

Home | Current Version | Previous Version | Text Only | Print | Product List | Glossary Off
Versions: 1 2 3 4 5 6 7 8 9 10 11 12 13 14 15 16 17 18

000
FTUS43 KGRB 241500 AAA
TAFAUW
TAF AMD
KAUW 241507Z 2415/2512 28006KT P6SM SCT008 OVC020
      TEMPO 2415/2417 BKN008
     FM241700 30007KT P6SM SCT012 OVC020
     FM242200 34005KT 6SM -SN BKN020 OVC035
     FM250200 05007KT 4SM -SN BKN015 OVC030
     FM250700 06011KT P6SM -SN BKN015 OVC030=

USA.gov is the U.S. government's official web portal to all federal, state and local government web resources and services.